sensor_id;sensor_type;location;lat;lon;timestamp;pressure;altitude;pressure_sealevel;temperature;humidity
43707;BME280;61348;53.392;-6.248;2023-01-20T00:01:41;100914.28;;;-0.16;98.09
43707;BME280;61348;53.392;-6.248;2023-01-20T00:04:08;100917.00;;;-0.16;98.11
43707;BME280;61348;53.392;-6.248;2023-01-20T00:06:35;100921.34;;;-0.15;98.36
43707;BME280;61348;53.392;-6.248;2023-01-20T00:09:04;100924.34;;;-0.17;98.24
43707;BME280;61348;53.392;-6.248;2023-01-20T00:11:31;100924.06;;;-0.15;98.63
43707;BME280;61348;53.392;-6.248;2023-01-20T00:14:00;100924.06;;;-0.15;98.42
43707;BME280;61348;53.392;-6.248;2023-01-20T00:16:27;100916.72;;;-0.15;98.49
43707;BME280;61348;53.392;-6.248;2023-01-20T00:18:54;100926.53;;;-0.14;98.50
43707;BME280;61348;53.392;-6.248;2023-01-20T00:21:21;100931.16;;;-0.14;98.84
43707;BME280;61348;53.392;-6.248;2023-01-20T00:23:48;100922.72;;;-0.13;98.78
43707;BME280;61348;53.392;-6.248;2023-01-20T00:26:20;100933.59;;;-0.13;98.83
43707;BME280;61348;53.392;-6.248;2023-01-20T00:28:48;100925.72;;;-0.14;98.87
43707;BME280;61348;53.392;-6.248;2023-01-20T00:31:18;100928.97;;;-0.12;98.91
43707;BME280;61348;53.392;-6.248;2023-01-20T00:33:46;100929.78;;;-0.12;98.88
43707;BME280;61348;53.392;-6.248;2023-01-20T00:36:14;100931.69;;;-0.12;99.23
43707;BME280;61348;53.392;-6.248;2023-01-20T00:38:41;100930.03;;;-0.13;99.08
43707;BME280;61348;53.392;-6.248;2023-01-20T00:41:09;100931.69;;;-0.12;99.20
43707;BME280;61348;53.392;-6.248;2023-01-20T00:43:36;100924.34;;;-0.12;99.17
43707;BME280;61348;53.392;-6.248;2023-01-20T00:46:04;100928.97;;;-0.12;99.34
43707;BME280;61348;53.392;-6.248;2023-01-20T00:48:31;100919.72;;;-0.11;99.29
43707;BME280;61348;53.392;-6.248;2023-01-20T00:50:58;100919.72;;;-0.11;99.62
43707;BME280;61348;53.392;-6.248;2023-01-20T00:53:25;100925.19;;;-0.11;99.47
43707;BME280;61348;53.392;-6.248;2023-01-20T00:55:52;100928.97;;;-0.12;99.37
43707;BME280;61348;53.392;-6.248;2023-01-20T00:58:19;100930.88;;;-0.13;99.44
43707;BME280;61348;53.392;-6.248;2023-01-20T01:00:46;100927.31;;;-0.13;99.66
43707;BME280;61348;53.392;-6.248;2023-01-20T01:03:13;100930.03;;;-0.13;99.72
43707;BME280;61348;53.392;-6.248;2023-01-20T01:05:41;100923.53;;;-0.12;99.62
43707;BME280;61348;53.392;-6.248;2023-01-20T01:08:08;100917.00;;;-0.11;99.71
43707;BME280;61348;53.392;-6.248;2023-01-20T01:10:35;100928.44;;;-0.09;99.84
43707;BME280;61348;53.392;-6.248;2023-01-20T01:13:03;100926.78;;;-0.10;99.91
43707;BME280;61348;53.392;-6.248;2023-01-20T01:15:30;100923.53;;;-0.12;99.89
43707;BME280;61348;53.392;-6.248;2023-01-20T01:17:57;100934.41;;;-0.12;100.00
43707;BME280;61348;53.392;-6.248;2023-01-20T01:20:26;100925.72;;;-0.14;100.00
43707;BME280;61348;53.392;-6.248;2023-01-20T01:22:54;100924.59;;;-0.13;100.00
43707;BME280;61348;53.392;-6.248;2023-01-20T01:25:21;100925.44;;;-0.13;100.00
43707;BME280;61348;53.392;-6.248;2023-01-20T01:27:48;100926.78;;;-0.15;100.00
43707;BME280;61348;53.392;-6.248;2023-01-20T01:30:15;100925.72;;;-0.14;100.00
43707;BME280;61348;53.392;-6.248;2023-01-20T01:32:42;100924.88;;;-0.15;100.00
43707;BME280;61348;53.392;-6.248;2023-01-20T01:35:09;100930.34;;;-0.15;100.00
43707;BME280;61348;53.392;-6.248;2023-01-20T01:37:35;100925.97;;;-0.16;100.00
43707;BME280;61348;53.392;-6.248;2023-01-20T01:40:02;100931.69;;;-0.17;100.00
43707;BME280;61348;53.392;-6.248;2023-01-20T01:42:29;100930.03;;;-0.18;100.00
43707;BME280;61348;53.392;-6.248;2023-01-20T01:47:46;100927.31;;;-0.23;100.00
43707;BME280;61348;53.392;-6.248;2023-01-20T01:50:20;100931.41;;;-0.26;100.00
43707;BME280;61348;53.392;-6.248;2023-01-20T01:52:50;100932.75;;;-0.28;100.00
43707;BME280;61348;53.392;-6.248;2023-01-20T01:55:20;100924.06;;;-0.30;100.00
43707;BME280;61348;53.392;-6.248;2023-01-20T01:57:49;100939.84;;;-0.32;100.00
43707;BME280;61348;53.392;-6.248;2023-01-20T02:00:16;100942.81;;;-0.34;100.00
43707;BME280;61348;53.392;-6.248;2023-01-20T02:02:44;100954.50;;;-0.33;100.00
43707;BME280;61348;53.392;-6.248;2023-01-20T02:05:12;100937.09;;;-0.37;100.00
43707;BME280;61348;53.392;-6.248;2023-01-20T02:07:43;100950.13;;;-0.39;100.00
43707;BME280;61348;53.392;-6.248;2023-01-20T02:10:11;100954.78;;;-0.40;100.00
43707;BME280;61348;53.392;-6.248;2023-01-20T02:12:38;100951.22;;;-0.40;100.00
43707;BME280;61348;53.392;-6.248;2023-01-20T02:15:07;100952.31;;;-0.41;100.00
43707;BME280;61348;53.392;-6.248;2023-01-20T02:17:39;100960.47;;;-0.41;100.00
43707;BME280;61348;53.392;-6.248;2023-01-20T02:20:17;100967.56;;;-0.40;100.00
43707;BME280;61348;53.392;-6.248;2023-01-20T02:23:06;100970.53;;;-0.42;100.00
43707;BME280;61348;53.392;-6.248;2023-01-20T02:28:29;100977.84;;;-0.42;100.00
43707;BME280;61348;53.392;-6.248;2023-01-20T02:34:19;100973.25;;;-0.42;100.00
43707;BME280;61348;53.392;-6.248;2023-01-20T02:36:57;100974.06;;;-0.41;100.00
43707;BME280;61348;53.392;-6.248;2023-01-20T02:42:08;100980.31;;;-0.41;100.00
43707;BME280;61348;53.392;-6.248;2023-01-20T02:47:29;100984.94;;;-0.41;100.00
43707;BME280;61348;53.392;-6.248;2023-01-20T02:52:41;100991.22;;;-0.41;100.00
43707;BME280;61348;53.392;-6.248;2023-01-20T02:55:14;100989.31;;;-0.40;100.00
43707;BME280;61348;53.392;-6.248;2023-01-20T02:57:46;100993.66;;;-0.39;100.00
43707;BME280;61348;53.392;-6.248;2023-01-20T03:02:54;100985.75;;;-0.41;100.00
43707;BME280;61348;53.392;-6.248;2023-01-20T03:05:43;100991.44;;;-0.42;100.00
43707;BME280;61348;53.392;-6.248;2023-01-20T03:08:13;100996.34;;;-0.44;100.00
43707;BME280;61348;53.392;-6.248;2023-01-20T03:10:41;100994.16;;;-0.42;100.00
43707;BME280;61348;53.392;-6.248;2023-01-20T03:13:49;100999.59;;;-0.42;100.00
43707;BME280;61348;53.392;-6.248;2023-01-20T03:16:21;101007.53;;;-0.41;100.00
43707;BME280;61348;53.392;-6.248;2023-01-20T03:18:49;101001.25;;;-0.41;100.00
43707;BME280;61348;53.392;-6.248;2023-01-20T03:21:17;101003.97;;;-0.41;100.00
43707;BME280;61348;53.392;-6.248;2023-01-20T03:23:49;101010.50;;;-0.42;100.00
43707;BME280;61348;53.392;-6.248;2023-01-20T03:26:19;101010.50;;;-0.42;100.00
43707;BME280;61348;53.392;-6.248;2023-01-20T03:28:46;101014.31;;;-0.43;100.00
43707;BME280;61348;53.392;-6.248;2023-01-20T03:31:17;101008.88;;;-0.43;100.00
43707;BME280;61348;53.392;-6.248;2023-01-20T03:33:48;101016.22;;;-0.44;100.00
43707;BME280;61348;53.392;-6.248;2023-01-20T03:36:17;101020.56;;;-0.43;100.00
43707;BME280;61348;53.392;-6.248;2023-01-20T03:38:44;101017.03;;;-0.43;100.00
43707;BME280;61348;53.392;-6.248;2023-01-20T03:41:35;101005.59;;;-0.45;100.00
43707;BME280;61348;53.392;-6.248;2023-01-20T03:53:03;101008.56;;;-0.47;100.00
43707;BME280;61348;53.392;-6.248;2023-01-20T03:55:49;101012.13;;;-0.46;100.00
43707;BME280;61348;53.392;-6.248;2023-01-20T03:58:23;101004.78;;;-0.46;100.00
43707;BME280;61348;53.392;-6.248;2023-01-20T04:00:52;101011.84;;;-0.45;100.00
43707;BME280;61348;53.392;-6.248;2023-01-20T04:03:26;101002.91;;;-0.45;100.00
43707;BME280;61348;53.392;-6.248;2023-01-20T04:05:57;101010.22;;;-0.46;100.00
43707;BME280;61348;53.392;-6.248;2023-01-20T04:08:28;101008.34;;;-0.45;100.00
43707;BME280;61348;53.392;-6.248;2023-01-20T04:10:57;101009.94;;;-0.44;100.00
43707;BME280;61348;53.392;-6.248;2023-01-20T04:13:27;101017.03;;;-0.43;100.00
43707;BME280;61348;53.392;-6.248;2023-01-20T04:15:54;101017.56;;;-0.41;100.00
43707;BME280;61348;53.392;-6.248;2023-01-20T04:18:23;101022.19;;;-0.42;100.00
43707;BME280;61348;53.392;-6.248;2023-01-20T04:21:00;101017.56;;;-0.41;100.00
43707;BME280;61348;53.392;-6.248;2023-01-20T04:25:54;101026.00;;;-0.43;100.00
43707;BME280;61348;53.392;-6.248;2023-01-20T04:28:20;101018.66;;;-0.42;100.00
43707;BME280;61348;53.392;-6.248;2023-01-20T04:30:47;101010.50;;;-0.42;100.00
43707;BME280;61348;53.392;-6.248;2023-01-20T04:33:14;101015.94;;;-0.42;100.00
43707;BME280;61348;53.392;-6.248;2023-01-20T04:35:41;101006.41;;;-0.45;100.00
43707;BME280;61348;53.392;-6.248;2023-01-20T04:38:07;101007.50;;;-0.46;100.00
43707;BME280;61348;53.392;-6.248;2023-01-20T04:40:34;101008.34;;;-0.45;100.00
43707;BME280;61348;53.392;-6.248;2023-01-20T04:43:01;101002.91;;;-0.45;100.00
43707;BME280;61348;53.392;-6.248;2023-01-20T04:45:27;101017.28;;;-0.45;100.00
43707;BME280;61348;53.392;-6.248;2023-01-20T04:47:54;101013.50;;;-0.44;100.00
43707;BME280;61348;53.392;-6.248;2023-01-20T04:50:21;101025.19;;;-0.43;100.00
43707;BME280;61348;53.392;-6.248;2023-01-20T04:52:47;101021.94;;;-0.45;100.00
43707;BME280;61348;53.392;-6.248;2023-01-20T04:55:14;101024.06;;;-0.47;100.00
43707;BME280;61348;53.392;-6.248;2023-01-20T04:57:41;101021.63;;;-0.49;100.00
43707;BME280;61348;53.392;-6.248;2023-01-20T05:00:10;101022.16;;;-0.52;100.00
43707;BME280;61348;53.392;-6.248;2023-01-20T05:02:36;101020.25;;;-0.56;100.00
43707;BME280;61348;53.392;-6.248;2023-01-20T05:05:03;101015.06;;;-0.58;100.00
43707;BME280;61348;53.392;-6.248;2023-01-20T05:07:30;101010.41;;;-0.63;100.00
43707;BME280;61348;53.392;-6.248;2023-01-20T05:09:57;101015.84;;;-0.68;100.00
43707;BME280;61348;53.392;-6.248;2023-01-20T05:12:23;101014.75;;;-0.72;100.00
43707;BME280;61348;53.392;-6.248;2023-01-20T05:14:50;101015.25;;;-0.75;100.00
43707;BME280;61348;53.392;-6.248;2023-01-20T05:17:17;101014.69;;;-0.77;100.00
43707;BME280;61348;53.392;-6.248;2023-01-20T05:19:44;101032.31;;;-0.84;100.00
43707;BME280;61348;53.392;-6.248;2023-01-20T05:22:10;101030.19;;;-0.82;100.00
43707;BME280;61348;53.392;-6.248;2023-01-20T05:24:37;101031.25;;;-0.83;100.00
43707;BME280;61348;53.392;-6.248;2023-01-20T05:27:03;101046.69;;;-0.89;100.00
43707;BME280;61348;53.392;-6.248;2023-01-20T05:29:31;101034.75;;;-0.88;100.00
43707;BME280;61348;53.392;-6.248;2023-01-20T05:31:57;101038.03;;;-0.86;100.00
43707;BME280;61348;53.392;-6.248;2023-01-20T05:34:24;101039.09;;;-0.87;100.00
43707;BME280;61348;53.392;-6.248;2023-01-20T05:36:52;101040.72;;;-0.91;100.00
43707;BME280;61348;53.392;-6.248;2023-01-20T05:39:19;101033.31;;;-0.95;100.00
43707;BME280;61348;53.392;-6.248;2023-01-20T05:41:46;101037.66;;;-0.99;100.00
43707;BME280;61348;53.392;-6.248;2023-01-20T05:44:14;101039.00;;;-1.02;100.00
43707;BME280;61348;53.392;-6.248;2023-01-20T05:46:41;101038.69;;;-1.05;100.00
43707;BME280;61348;53.392;-6.248;2023-01-20T05:49:09;101040.06;;;-1.03;100.00
43707;BME280;61348;53.392;-6.248;2023-01-20T05:51:36;101046.09;;;-1.01;100.00
43707;BME280;61348;53.392;-6.248;2023-01-20T05:54:03;101040.66;;;-1.01;100.00
43707;BME280;61348;53.392;-6.248;2023-01-20T05:56:31;101042.25;;;-1.05;100.00
43707;BME280;61348;53.392;-6.248;2023-01-20T05:58:58;101049.56;;;-1.05;100.00
43707;BME280;61348;53.392;-6.248;2023-01-20T06:01:24;101057.44;;;-1.09;100.00
43707;BME280;61348;53.392;-6.248;2023-01-20T06:03:51;101047.09;;;-1.12;100.00
43707;BME280;61348;53.392;-6.248;2023-01-20T06:06:19;101048.69;;;-1.16;100.00
43707;BME280;61348;53.392;-6.248;2023-01-20T06:08:45;101046.47;;;-1.19;100.00
43707;BME280;61348;53.392;-6.248;2023-01-20T06:11:12;101045.94;;;-1.21;100.00
43707;BME280;61348;53.392;-6.248;2023-01-20T06:13:40;101052.50;;;-1.17;100.00
43707;BME280;61348;53.392;-6.248;2023-01-20T06:16:07;101048.69;;;-1.16;100.00
43707;BME280;61348;53.392;-6.248;2023-01-20T06:18:33;101054.09;;;-1.16;100.00
43707;BME280;61348;53.392;-6.248;2023-01-20T06:21:00;101055.44;;;-1.18;100.00
43707;BME280;61348;53.392;-6.248;2023-01-20T06:23:27;101060.84;;;-1.24;100.00
43707;BME280;61348;53.392;-6.248;2023-01-20T06:26:12;101066.56;;;-1.25;100.00
43707;BME280;61348;53.392;-6.248;2023-01-20T06:28:39;101069.00;;;-1.24;100.00
43707;BME280;61348;53.392;-6.248;2023-01-20T06:31:09;101077.13;;;-1.24;100.00
43707;BME280;61348;53.392;-6.248;2023-01-20T06:33:36;101079.03;;;-1.24;100.00
43707;BME280;61348;53.392;-6.248;2023-01-20T06:36:03;101079.31;;;-1.26;100.00
43707;BME280;61348;53.392;-6.248;2023-01-20T06:38:32;101070.84;;;-1.29;100.00
43707;BME280;61348;53.392;-6.248;2023-01-20T06:41:04;101079.25;;;-1.31;100.00
43707;BME280;61348;53.392;-6.248;2023-01-20T06:43:32;101075.16;;;-1.33;100.00
43707;BME280;61348;53.392;-6.248;2023-01-20T06:46:00;101067.78;;;-1.38;100.00
43707;BME280;61348;53.392;-6.248;2023-01-20T06:48:28;101079.97;;;-1.40;100.00
43707;BME280;61348;53.392;-6.248;2023-01-20T06:51:12;101076.72;;;-1.42;100.00
43707;BME280;61348;53.392;-6.248;2023-01-20T06:53:39;101082.91;;;-1.47;100.00
43707;BME280;61348;53.392;-6.248;2023-01-20T06:56:08;101072.56;;;-1.50;100.00
43707;BME280;61348;53.392;-6.248;2023-01-20T06:58:36;101073.34;;;-1.54;100.00
43707;BME280;61348;53.392;-6.248;2023-01-20T07:01:05;101077.63;;;-1.58;100.00
43707;BME280;61348;53.392;-6.248;2023-01-20T07:03:34;101087.44;;;-1.57;100.00
43707;BME280;61348;53.392;-6.248;2023-01-20T07:06:13;101081.69;;;-1.61;100.00
43707;BME280;61348;53.392;-6.248;2023-01-20T07:08:42;101078.69;;;-1.64;100.00
43707;BME280;61348;53.392;-6.248;2023-01-20T07:11:11;101078.38;;;-1.68;100.00
43707;BME280;61348;53.392;-6.248;2023-01-20T07:13:38;101088.72;;;-1.65;100.00
43707;BME280;61348;53.392;-6.248;2023-01-20T07:16:05;101097.09;;;-1.66;100.00
43707;BME280;61348;53.392;-6.248;2023-01-20T07:18:36;101102.53;;;-1.66;100.00
43707;BME280;61348;53.392;-6.248;2023-01-20T07:21:03;101097.16;;;-1.61;100.00
43707;BME280;61348;53.392;-6.248;2023-01-20T07:23:31;101100.97;;;-1.62;100.00
43707;BME280;61348;53.392;-6.248;2023-01-20T07:26:04;101099.81;;;-1.66;100.00
43707;BME280;61348;53.392;-6.248;2023-01-20T07:28:31;101110.94;;;-1.68;100.00
43707;BME280;61348;53.392;-6.248;2023-01-20T07:31:08;101107.97;;;-1.66;100.00
43707;BME280;61348;53.392;-6.248;2023-01-20T07:33:35;101111.19;;;-1.69;100.00
43707;BME280;61348;53.392;-6.248;2023-01-20T07:36:03;101119.31;;;-1.69;100.00
43707;BME280;61348;53.392;-6.248;2023-01-20T07:38:30;101119.31;;;-1.69;100.00
43707;BME280;61348;53.392;-6.248;2023-01-20T07:41:02;101117.19;;;-1.67;100.00
43707;BME280;61348;53.392;-6.248;2023-01-20T07:43:30;101112.84;;;-1.68;100.00
43707;BME280;61348;53.392;-6.248;2023-01-20T07:45:59;101107.66;;;-1.70;100.00
43707;BME280;61348;53.392;-6.248;2023-01-20T07:48:29;101121.53;;;-1.66;100.00
43707;BME280;61348;53.392;-6.248;2023-01-20T07:50:57;101130.00;;;-1.63;100.00
43707;BME280;61348;53.392;-6.248;2023-01-20T07:53:28;101130.25;;;-1.64;100.00
43707;BME280;61348;53.392;-6.248;2023-01-20T07:55:59;101122.63;;;-1.67;100.00
43707;BME280;61348;53.392;-6.248;2023-01-20T07:58:28;101126.41;;;-1.68;100.00
43707;BME280;61348;53.392;-6.248;2023-01-20T08:00:55;101126.41;;;-1.68;100.00
43707;BME280;61348;53.392;-6.248;2023-01-20T08:03:22;101125.78;;;-1.75;100.00
43707;BME280;61348;53.392;-6.248;2023-01-20T08:05:52;101126.91;;;-1.71;100.00
43707;BME280;61348;53.392;-6.248;2023-01-20T08:08:19;101126.66;;;-1.70;100.00
43707;BME280;61348;53.392;-6.248;2023-01-20T08:10:52;101129.06;;;-1.73;100.00
43707;BME280;61348;53.392;-6.248;2023-01-20T08:13:19;101133.44;;;-1.72;100.00
43707;BME280;61348;53.392;-6.248;2023-01-20T08:15:46;101128.56;;;-1.70;100.00
43707;BME280;61348;53.392;-6.248;2023-01-20T08:18:13;101126.91;;;-1.71;100.00
43707;BME280;61348;53.392;-6.248;2023-01-20T08:20:40;101133.16;;;-1.71;100.00
43707;BME280;61348;53.392;-6.248;2023-01-20T08:23:07;101136.88;;;-1.77;100.00
43707;BME280;61348;53.392;-6.248;2023-01-20T08:25:33;101146.34;;;-1.79;100.00
43707;BME280;61348;53.392;-6.248;2023-01-20T08:28:00;101143.66;;;-1.79;100.00
43707;BME280;61348;53.392;-6.248;2023-01-20T08:30:30;101154.75;;;-1.81;100.00
43707;BME280;61348;53.392;-6.248;2023-01-20T08:32:56;101147.50;;;-1.75;100.00
43707;BME280;61348;53.392;-6.248;2023-01-20T08:35:23;101150.78;;;-1.73;100.00
43707;BME280;61348;53.392;-6.248;2023-01-20T08:37:50;101158.66;;;-1.72;100.00
43707;BME280;61348;53.392;-6.248;2023-01-20T08:40:17;101160.03;;;-1.69;100.00
43707;BME280;61348;53.392;-6.248;2023-01-20T08:42:45;101149.19;;;-1.69;100.00
43707;BME280;61348;53.392;-6.248;2023-01-20T08:45:11;101148.63;;;-1.71;100.00
43707;BME280;61348;53.392;-6.248;2023-01-20T08:47:41;101154.09;;;-1.66;100.00
43707;BME280;61348;53.392;-6.248;2023-01-20T08:50:13;101154.16;;;-1.61;100.00
43707;BME280;61348;53.392;-6.248;2023-01-20T08:52:40;101163.69;;;-1.59;100.00
43707;BME280;61348;53.392;-6.248;2023-01-20T08:55:09;101156.38;;;-1.58;100.00
43707;BME280;61348;53.392;-6.248;2023-01-20T08:57:35;101165.66;;;-1.54;100.00
43707;BME280;61348;53.392;-6.248;2023-01-20T09:00:05;101159.41;;;-1.55;100.00
43707;BME280;61348;53.392;-6.248;2023-01-20T09:02:36;101166.22;;;-1.52;100.00
43707;BME280;61348;53.392;-6.248;2023-01-20T09:05:04;101174.34;;;-1.52;100.00
43707;BME280;61348;53.392;-6.248;2023-01-20T09:07:30;101172.16;;;-1.55;100.00
43707;BME280;61348;53.392;-6.248;2023-01-20T09:09:57;101167.81;;;-1.56;100.00
43707;BME280;61348;53.392;-6.248;2023-01-20T09:12:24;101174.03;;;-1.56;100.00
43707;BME280;61348;53.392;-6.248;2023-01-20T09:14:50;101180.34;;;-1.50;100.00
43707;BME280;61348;53.392;-6.248;2023-01-20T09:17:18;101177.94;;;-1.47;100.00
43707;BME280;61348;53.392;-6.248;2023-01-20T09:19:44;101189.94;;;-1.43;100.00
43707;BME280;61348;53.392;-6.248;2023-01-20T09:22:11;101185.97;;;-1.35;100.00
43707;BME280;61348;53.392;-6.248;2023-01-20T09:24:38;101186.56;;;-1.28;100.00
43707;BME280;61348;53.392;-6.248;2023-01-20T09:27:05;101194.22;;;-1.25;100.00
43707;BME280;61348;53.392;-6.248;2023-01-20T09:29:32;101190.44;;;-1.19;100.00
43707;BME280;61348;53.392;-6.248;2023-01-20T09:32:00;101193.78;;;-1.12;100.00
43707;BME280;61348;53.392;-6.248;2023-01-20T09:34:29;101205.25;;;-1.05;100.00
43707;BME280;61348;53.392;-6.248;2023-01-20T09:36:58;101193.09;;;-0.97;100.00
43707;BME280;61348;53.392;-6.248;2023-01-20T09:39:45;101194.00;;;-0.87;100.00
43707;BME280;61348;53.392;-6.248;2023-01-20T09:45:41;101203.38;;;-0.73;100.00
43707;BME280;61348;53.392;-6.248;2023-01-20T09:51:12;101190.38;;;-0.66;100.00
43707;BME280;61348;53.392;-6.248;2023-01-20T09:54:20;101200.78;;;-0.57;100.00
43707;BME280;61348;53.392;-6.248;2023-01-20T09:56:50;101205.19;;;-0.51;100.00
43707;BME280;61348;53.392;-6.248;2023-01-20T09:59:29;101217.78;;;-0.40;100.00
43707;BME280;61348;53.392;-6.248;2023-01-20T10:02:00;101211.84;;;-0.32;100.00
43707;BME280;61348;53.392;-6.248;2023-01-20T10:04:42;101220.59;;;-0.25;100.00
43707;BME280;61348;53.392;-6.248;2023-01-20T10:15:08;101227.84;;;0.06;100.00
43707;BME280;61348;53.392;-6.248;2023-01-20T10:17:54;101236.66;;;0.18;100.00
43707;BME280;61348;53.392;-6.248;2023-01-20T10:23:06;101225.81;;;0.33;100.00
43707;BME280;61348;53.392;-6.248;2023-01-20T10:26:00;101237.28;;;0.40;100.00
43707;BME280;61348;53.392;-6.248;2023-01-20T10:28:35;101235.41;;;0.46;100.00
43707;BME280;61348;53.392;-6.248;2023-01-20T10:31:03;101232.44;;;0.52;100.00
43707;BME280;61348;53.392;-6.248;2023-01-20T10:33:35;101234.06;;;0.58;100.00
43707;BME280;61348;53.392;-6.248;2023-01-20T10:36:03;101235.19;;;0.63;100.00
43707;BME280;61348;53.392;-6.248;2023-01-20T10:43:30;101241.22;;;0.80;100.00
43707;BME280;61348;53.392;-6.248;2023-01-20T10:51:57;101253.81;;;0.96;100.00
43707;BME280;61348;53.392;-6.248;2023-01-20T10:54:37;101260.09;;;1.01;100.00
43707;BME280;61348;53.392;-6.248;2023-01-20T10:57:12;101263.66;;;1.07;100.00
43707;BME280;61348;53.392;-6.248;2023-01-20T11:00:00;101272.13;;;1.15;100.00
43707;BME280;61348;53.392;-6.248;2023-01-20T11:02:30;101268.59;;;1.20;100.00
43707;BME280;61348;53.392;-6.248;2023-01-20T11:07:31;101266.44;;;1.32;100.00
43707;BME280;61348;53.392;-6.248;2023-01-20T11:12:42;101263.72;;;1.37;100.00
43707;BME280;61348;53.392;-6.248;2023-01-20T11:15:30;101268.88;;;1.44;100.00
43707;BME280;61348;53.392;-6.248;2023-01-20T11:25:59;101290.16;;;1.62;100.00
43707;BME280;61348;53.392;-6.248;2023-01-20T11:28:33;101291.00;;;1.67;100.00
43707;BME280;61348;53.392;-6.248;2023-01-20T11:31:02;101269.72;;;1.74;100.00
43707;BME280;61348;53.392;-6.248;2023-01-20T11:33:30;101278.69;;;1.75;100.00
43707;BME280;61348;53.392;-6.248;2023-01-20T11:38:29;101273.28;;;1.80;100.00
43707;BME280;61348;53.392;-6.248;2023-01-20T11:40:56;101281.44;;;1.85;100.00
43707;BME280;61348;53.392;-6.248;2023-01-20T11:43:50;101272.41;;;1.95;100.00
43707;BME280;61348;53.392;-6.248;2023-01-20T11:46:26;101281.13;;;2.02;100.00
43707;BME280;61348;53.392;-6.248;2023-01-20T11:49:20;101275.13;;;2.05;99.80
43707;BME280;61348;53.392;-6.248;2023-01-20T11:51:53;101289.06;;;2.08;99.87
43707;BME280;61348;53.392;-6.248;2023-01-20T11:54:28;101281.16;;;2.12;99.50
43707;BME280;61348;53.392;-6.248;2023-01-20T11:57:04;101276.75;;;2.16;99.77
43707;BME280;61348;53.392;-6.248;2023-01-20T11:59:34;101278.13;;;2.18;99.38
43707;BME280;61348;53.392;-6.248;2023-01-20T12:07:26;101289.03;;;2.23;99.45
43707;BME280;61348;53.392;-6.248;2023-01-20T12:10:00;101287.13;;;2.24;99.37
43707;BME280;61348;53.392;-6.248;2023-01-20T12:12:39;101285.47;;;2.33;99.17
43707;BME280;61348;53.392;-6.248;2023-01-20T12:15:26;101287.91;;;2.39;98.83
43707;BME280;61348;53.392;-6.248;2023-01-20T12:18:45;101291.97;;;2.42;98.77
43707;BME280;61348;53.392;-6.248;2023-01-20T12:20:56;101279.94;;;2.48;98.53
43707;BME280;61348;53.392;-6.248;2023-01-20T12:26:16;101275.56;;;2.52;98.32
43707;BME280;61348;53.392;-6.248;2023-01-20T12:31:45;101276.34;;;2.63;97.56
43707;BME280;61348;53.392;-6.248;2023-01-20T12:34:19;101282.88;;;2.67;97.26
43707;BME280;61348;53.392;-6.248;2023-01-20T12:37:05;101279.31;;;2.71;97.12
43707;BME280;61348;53.392;-6.248;2023-01-20T12:45:16;101279.25;;;2.81;96.43
43707;BME280;61348;53.392;-6.248;2023-01-20T12:48:28;101271.59;;;2.83;96.29
43707;BME280;61348;53.392;-6.248;2023-01-20T12:58:45;101280.03;;;2.92;95.42
43707;BME280;61348;53.392;-6.248;2023-01-20T13:13:26;101282.63;;;3.17;94.85
43707;BME280;61348;53.392;-6.248;2023-01-20T13:18:38;101286.16;;;3.23;94.38
43707;BME280;61348;53.392;-6.248;2023-01-20T13:21:13;101276.84;;;3.24;94.82
43707;BME280;61348;53.392;-6.248;2023-01-20T13:23:44;101274.06;;;3.29;94.71
43707;BME280;61348;53.392;-6.248;2023-01-20T13:26:12;101266.63;;;3.34;94.67
43707;BME280;61348;53.392;-6.248;2023-01-20T13:28:50;101276.16;;;3.42;94.84
43707;BME280;61348;53.392;-6.248;2023-01-20T13:31:52;101274.97;;;3.53;94.34
43707;BME280;61348;53.392;-6.248;2023-01-20T13:39:39;101290.66;;;3.76;93.90
43707;BME280;61348;53.392;-6.248;2023-01-20T13:50:35;101294.25;;;4.05;93.86
43707;BME280;61348;53.392;-6.248;2023-01-20T14:01:02;101314.19;;;4.40;93.20
43707;BME280;61348;53.392;-6.248;2023-01-20T14:03:35;101313.53;;;4.48;93.01
43707;BME280;61348;53.392;-6.248;2023-01-20T14:08:45;101314.50;;;4.62;92.82
43707;BME280;61348;53.392;-6.248;2023-01-20T14:16:36;101327.97;;;4.82;92.25
43707;BME280;61348;53.392;-6.248;2023-01-20T14:21:59;101333.34;;;4.92;91.58
43707;BME280;61348;53.392;-6.248;2023-01-20T14:24:32;101342.59;;;4.96;91.79
43707;BME280;61348;53.392;-6.248;2023-01-20T14:27:22;101337.06;;;5.01;91.38
43707;BME280;61348;53.392;-6.248;2023-01-20T14:29:51;101337.00;;;5.06;91.11
43707;BME280;61348;53.392;-6.248;2023-01-20T14:34:48;101349.59;;;5.07;90.85
43707;BME280;61348;53.392;-6.248;2023-01-20T14:37:29;101338.91;;;5.06;90.25
43707;BME280;61348;53.392;-6.248;2023-01-20T14:39:59;101344.47;;;5.01;90.15
43707;BME280;61348;53.392;-6.248;2023-01-20T14:42:28;101346.25;;;4.91;89.58
43707;BME280;61348;53.392;-6.248;2023-01-20T14:44:56;101357.34;;;4.81;89.60
43707;BME280;61348;53.392;-6.248;2023-01-20T14:47:24;101359.66;;;4.69;89.38
43707;BME280;61348;53.392;-6.248;2023-01-20T14:49:52;101352.94;;;4.57;89.15
43707;BME280;61348;53.392;-6.248;2023-01-20T14:52:23;101365.06;;;4.51;89.30
43707;BME280;61348;53.392;-6.248;2023-01-20T14:54:50;101362.94;;;4.43;88.93
43707;BME280;61348;53.392;-6.248;2023-01-20T15:02:33;101374.06;;;4.27;88.50
43707;BME280;61348;53.392;-6.248;2023-01-20T15:05:00;101376.28;;;4.25;88.09
43707;BME280;61348;53.392;-6.248;2023-01-20T15:07:27;101388.63;;;4.23;87.97
43707;BME280;61348;53.392;-6.248;2023-01-20T15:09:59;101382.09;;;4.19;87.78
43707;BME280;61348;53.392;-6.248;2023-01-20T15:12:38;101379.06;;;4.20;87.96
43707;BME280;61348;53.392;-6.248;2023-01-20T15:15:26;101378.00;;;4.16;87.75
43707;BME280;61348;53.392;-6.248;2023-01-20T15:18:21;101385.16;;;4.12;87.29
43707;BME280;61348;53.392;-6.248;2023-01-20T15:20:54;101388.19;;;4.11;87.27
43707;BME280;61348;53.392;-6.248;2023-01-20T15:23:41;101390.41;;;4.09;87.47
43707;BME280;61348;53.392;-6.248;2023-01-20T15:26:22;101391.78;;;4.06;87.41
43707;BME280;61348;53.392;-6.248;2023-01-20T15:28:49;101390.13;;;4.05;87.21